createdAt,value
2023-07-15T00:01:13.270Z,21.29
2023-07-15T00:03:39.838Z,21.30
2023-07-15T00:06:07.127Z,21.31
2023-07-15T00:08:34.331Z,21.38
2023-07-15T00:11:02.281Z,21.39
2023-07-15T00:13:28.812Z,21.38
2023-07-15T00:15:55.507Z,21.38
2023-07-15T00:18:22.643Z,21.41
2023-07-15T00:20:49.983Z,21.38
2023-07-15T00:23:18.941Z,21.36
2023-07-15T00:25:45.822Z,21.34
2023-07-15T00:28:12.353Z,21.31
2023-07-15T00:30:38.956Z,21.27
2023-07-15T00:33:09.737Z,21.23
2023-07-15T00:35:37.427Z,21.20
2023-07-15T00:38:03.999Z,21.18
2023-07-15T00:40:37.721Z,21.19
2023-07-15T00:43:41.567Z,21.17
2023-07-15T00:46:24.688Z,21.18
2023-07-15T00:48:57.449Z,21.19
2023-07-15T00:51:26.657Z,21.18
2023-07-15T00:53:55.352Z,21.20
2023-07-15T00:56:23.986Z,21.21
2023-07-15T00:58:51.612Z,21.23
2023-07-15T01:01:18.478Z,21.22
2023-07-15T01:03:46.212Z,21.20
2023-07-15T01:06:14.877Z,21.19
2023-07-15T01:08:43.287Z,21.18
2023-07-15T01:11:11.412Z,21.14
2023-07-15T01:13:38.841Z,21.09
2023-07-15T01:16:05.608Z,21.08
2023-07-15T01:18:33.071Z,21.05
2023-07-15T01:21:00.829Z,21.03
2023-07-15T01:23:29.449Z,20.96
2023-07-15T01:25:57.053Z,20.94
2023-07-15T01:28:24.472Z,20.95
2023-07-15T01:30:51.819Z,20.92
2023-07-15T01:33:20.097Z,20.88
2023-07-15T01:35:48.497Z,20.87
2023-07-15T01:38:18.917Z,20.86
2023-07-15T01:40:45.461Z,20.85
2023-07-15T01:43:12.027Z,20.81
2023-07-15T01:45:40.543Z,20.78
2023-07-15T01:48:08.777Z,20.77
2023-07-15T01:50:39.046Z,20.73
2023-07-15T01:53:06.359Z,20.69
2023-07-15T01:55:32.900Z,20.66
2023-07-15T01:57:59.449Z,20.66
2023-07-15T02:00:26.070Z,20.60
2023-07-15T02:02:52.783Z,20.56
2023-07-15T02:05:19.433Z,20.50
2023-07-15T02:07:48.089Z,20.48
2023-07-15T02:10:14.626Z,20.46
2023-07-15T02:12:41.134Z,20.44
2023-07-15T02:15:08.362Z,20.38
2023-07-15T02:17:36.443Z,20.33
2023-07-15T02:20:06.589Z,20.28
2023-07-15T02:22:33.330Z,20.25
2023-07-15T02:24:59.985Z,20.20
2023-07-15T02:27:26.730Z,20.13
2023-07-15T02:29:55.079Z,20.09
2023-07-15T02:32:40.584Z,20.06
2023-07-15T02:35:13.119Z,20.00
2023-07-15T02:37:43.119Z,19.94
2023-07-15T02:40:11.504Z,19.89
2023-07-15T02:42:38.936Z,19.83
2023-07-15T02:45:12.596Z,19.79
2023-07-15T02:47:42.516Z,19.73
2023-07-15T02:50:10.459Z,19.64
2023-07-15T02:52:38.340Z,19.58
2023-07-15T02:55:08.018Z,19.53
2023-07-15T02:57:35.041Z,19.50
2023-07-15T03:00:04.800Z,19.43
2023-07-15T03:02:31.288Z,19.38
2023-07-15T03:04:57.907Z,19.33
2023-07-15T03:07:24.914Z,19.30
2023-07-15T03:09:51.680Z,19.28
2023-07-15T03:12:18.244Z,19.27
2023-07-15T03:14:44.965Z,19.22
2023-07-15T03:17:11.964Z,19.16
2023-07-15T03:19:38.701Z,19.13
2023-07-15T03:22:06.007Z,19.10
2023-07-15T03:24:33.250Z,19.06
2023-07-15T03:27:00.724Z,19.02
2023-07-15T03:29:27.374Z,19.00
2023-07-15T03:31:53.897Z,18.96
2023-07-15T03:34:20.611Z,18.94
2023-07-15T03:36:47.078Z,18.89
2023-07-15T03:39:13.624Z,18.85
2023-07-15T03:41:40.215Z,18.81
2023-07-15T03:44:06.801Z,18.79
2023-07-15T03:46:35.418Z,18.78
2023-07-15T03:49:02.211Z,18.75
2023-07-15T03:51:28.787Z,18.70
2023-07-15T03:53:55.326Z,18.72
2023-07-15T03:56:21.961Z,18.70
2023-07-15T03:58:48.796Z,18.69
2023-07-15T04:01:15.443Z,18.69
2023-07-15T04:03:41.915Z,18.71
2023-07-15T04:06:08.877Z,18.75
2023-07-15T04:08:35.716Z,18.80
2023-07-15T04:11:02.730Z,18.94
2023-07-15T04:13:29.195Z,18.96
2023-07-15T04:15:55.677Z,18.87
2023-07-15T04:18:22.493Z,18.84
2023-07-15T04:20:49.145Z,18.82
2023-07-15T04:23:15.755Z,18.80
2023-07-15T04:25:42.326Z,18.82
2023-07-15T04:28:09.424Z,18.87
2023-07-15T04:30:36.387Z,18.90
2023-07-15T04:33:03.868Z,18.96
2023-07-15T04:35:30.559Z,19.00
2023-07-15T04:37:57.068Z,19.05
2023-07-15T04:40:23.498Z,19.06
2023-07-15T04:42:49.941Z,19.09
2023-07-15T04:45:16.669Z,19.17
2023-07-15T04:47:43.661Z,19.18
2023-07-15T04:50:10.271Z,19.26
2023-07-15T04:52:36.726Z,19.37
2023-07-15T04:55:04.414Z,19.42
2023-07-15T04:57:30.952Z,19.46
2023-07-15T04:59:57.464Z,19.54
2023-07-15T05:02:24.096Z,19.62
2023-07-15T05:04:50.670Z,19.69
2023-07-15T05:07:17.221Z,19.78
2023-07-15T05:09:43.979Z,19.85
2023-07-15T05:12:11.906Z,19.92
2023-07-15T05:14:38.423Z,19.98
2023-07-15T05:17:08.290Z,19.99
2023-07-15T05:19:34.910Z,20.03
2023-07-15T05:22:01.500Z,20.16
2023-07-15T05:24:29.910Z,20.45
2023-07-15T05:26:56.972Z,21.46
2023-07-15T05:29:24.103Z,23.31
2023-07-15T05:31:51.542Z,24.64
2023-07-15T05:34:18.117Z,25.67
2023-07-15T05:36:44.628Z,26.24
2023-07-15T05:39:12.525Z,27.39
2023-07-15T05:41:38.987Z,28.05
2023-07-15T05:44:05.490Z,26.71
2023-07-15T05:46:32.052Z,26.20
2023-07-15T05:48:59.928Z,26.45
2023-07-15T05:51:26.506Z,27.07
2023-07-15T05:53:53.063Z,26.93
2023-07-15T05:56:19.542Z,28.02
2023-07-15T05:58:46.036Z,28.53
2023-07-15T06:01:12.753Z,28.66
2023-07-15T06:03:39.757Z,28.84
2023-07-15T06:06:06.342Z,28.56
2023-07-15T06:08:35.580Z,27.70
2023-07-15T06:11:02.049Z,27.23
2023-07-15T06:13:30.563Z,26.37
2023-07-15T06:15:57.470Z,25.69
2023-07-15T06:18:24.336Z,25.73
2023-07-15T06:20:51.142Z,25.73
2023-07-15T06:23:17.636Z,26.41
2023-07-15T06:25:44.125Z,26.50
2023-07-15T06:28:10.662Z,26.87
2023-07-15T06:30:37.292Z,26.69
2023-07-15T06:33:03.914Z,26.61
2023-07-15T06:35:30.414Z,26.86
2023-07-15T06:37:56.942Z,26.36
2023-07-15T06:40:23.536Z,25.94
2023-07-15T06:42:50.300Z,26.58
2023-07-15T06:45:21.879Z,27.01
2023-07-15T06:47:48.680Z,27.57
2023-07-15T06:50:15.168Z,28.13
2023-07-15T06:52:41.726Z,28.31
2023-07-15T06:55:08.615Z,28.81
2023-07-15T06:57:35.051Z,29.10
2023-07-15T07:00:01.538Z,29.29
2023-07-15T07:02:28.095Z,29.35
2023-07-15T07:04:54.750Z,29.48
2023-07-15T07:07:23.538Z,29.54
2023-07-15T07:09:50.487Z,29.09
2023-07-15T07:12:16.957Z,28.41
2023-07-15T07:14:43.483Z,27.90
2023-07-15T07:17:10.027Z,27.55
2023-07-15T07:19:36.551Z,27.24
2023-07-15T07:22:03.083Z,26.91
2023-07-15T07:24:29.650Z,26.95
2023-07-15T07:26:56.225Z,26.60
2023-07-15T07:29:23.513Z,26.37
2023-07-15T07:31:50.183Z,26.17
2023-07-15T07:34:16.662Z,26.00
2023-07-15T07:36:43.190Z,25.85
2023-07-15T07:39:09.796Z,25.83
2023-07-15T07:41:36.321Z,25.94
2023-07-15T07:44:02.874Z,26.10
2023-07-15T07:46:29.490Z,26.22
2023-07-15T07:48:55.979Z,26.20
2023-07-15T07:51:22.505Z,26.41
2023-07-15T07:53:48.994Z,26.70
2023-07-15T07:56:15.608Z,26.78
2023-07-15T07:58:42.199Z,26.82
2023-07-15T08:01:08.901Z,26.74
2023-07-15T08:03:35.680Z,26.60
2023-07-15T08:06:02.354Z,26.15
2023-07-15T08:08:28.903Z,25.93
2023-07-15T08:10:55.456Z,25.78
2023-07-15T08:13:22.077Z,25.73
2023-07-15T08:15:48.822Z,25.71
2023-07-15T08:18:15.242Z,25.51
2023-07-15T08:20:42.648Z,25.46
2023-07-15T08:23:09.853Z,25.24
2023-07-15T08:25:38.225Z,25.37
2023-07-15T08:28:05.000Z,25.78
2023-07-15T08:30:31.642Z,26.01
2023-07-15T08:32:58.162Z,26.36
2023-07-15T08:35:24.727Z,26.31
2023-07-15T08:37:54.069Z,26.30
2023-07-15T08:40:24.701Z,26.38
2023-07-15T08:42:51.699Z,26.12
2023-07-15T08:45:18.824Z,26.19
2023-07-15T08:47:46.238Z,26.38
2023-07-15T08:50:16.723Z,26.31
2023-07-15T08:52:45.007Z,25.96
2023-07-15T08:55:12.369Z,26.03
2023-07-15T08:57:39.831Z,26.15
2023-07-15T09:00:10.926Z,26.20
2023-07-15T09:02:41.417Z,25.80
2023-07-15T09:05:11.585Z,25.42
2023-07-15T09:07:58.227Z,25.41
2023-07-15T09:10:25.987Z,25.38
2023-07-15T09:12:54.297Z,25.10
2023-07-15T09:15:21.288Z,24.86
2023-07-15T09:17:56.431Z,24.95
2023-07-15T09:20:25.548Z,25.32
2023-07-15T09:22:53.308Z,25.51
2023-07-15T09:25:23.701Z,25.53
2023-07-15T09:27:51.221Z,25.65
2023-07-15T09:30:19.266Z,25.78
2023-07-15T09:32:46.504Z,25.92
2023-07-15T09:35:15.364Z,25.96
2023-07-15T09:37:41.968Z,25.93
2023-07-15T09:40:09.939Z,25.82
2023-07-15T09:42:55.913Z,25.65
2023-07-15T09:45:41.697Z,25.53
2023-07-15T09:48:17.500Z,25.81
2023-07-15T09:50:44.282Z,26.01
2023-07-15T09:53:11.686Z,26.05
2023-07-15T09:55:41.439Z,25.87
2023-07-15T09:58:23.138Z,25.81
2023-07-15T10:01:03.806Z,25.92
2023-07-15T10:03:37.186Z,25.76
2023-07-15T10:06:05.125Z,25.52
2023-07-15T10:08:32.085Z,25.37
2023-07-15T10:10:58.754Z,25.31
2023-07-15T10:13:26.475Z,25.19
2023-07-15T10:15:53.376Z,25.10
2023-07-15T10:18:21.058Z,25.00
2023-07-15T10:20:55.461Z,25.00
2023-07-15T10:23:30.249Z,25.23
2023-07-15T10:26:03.738Z,25.39
2023-07-15T10:28:34.709Z,25.32
2023-07-15T10:31:16.431Z,25.21
2023-07-15T10:34:00.312Z,25.23
2023-07-15T10:36:38.171Z,25.21
2023-07-15T10:39:17.904Z,25.14
2023-07-15T10:41:49.524Z,25.09
2023-07-15T10:44:23.265Z,24.93
2023-07-15T10:46:56.774Z,24.86
2023-07-15T10:49:23.517Z,24.93
2023-07-15T10:51:53.625Z,24.96
2023-07-15T10:54:23.280Z,25.22
2023-07-15T10:56:50.463Z,25.50
2023-07-15T10:59:17.090Z,25.78
2023-07-15T11:01:44.710Z,25.95
2023-07-15T11:04:11.735Z,26.00
2023-07-15T11:06:38.921Z,25.93
2023-07-15T11:09:16.406Z,25.88
2023-07-15T11:11:43.141Z,26.33
2023-07-15T11:14:30.481Z,26.31
2023-07-15T11:16:59.555Z,26.27
2023-07-15T11:19:28.461Z,26.23
2023-07-15T11:22:00.112Z,26.02
2023-07-15T11:24:28.628Z,25.90
2023-07-15T11:26:55.448Z,25.87
2023-07-15T11:29:24.530Z,25.86
2023-07-15T11:31:55.345Z,25.94
2023-07-15T11:34:24.008Z,26.07
2023-07-15T11:36:52.121Z,26.32
2023-07-15T11:39:19.438Z,26.08
2023-07-15T11:41:46.388Z,26.12
2023-07-15T11:44:14.839Z,26.14
2023-07-15T11:46:42.770Z,26.13
2023-07-15T11:49:10.202Z,26.03
2023-07-15T11:51:41.657Z,25.90
2023-07-15T11:54:10.861Z,25.72
2023-07-15T11:56:41.065Z,25.71
2023-07-15T11:59:09.441Z,25.93
2023-07-15T12:01:38.276Z,26.40
2023-07-15T12:04:18.655Z,26.65
2023-07-15T12:06:50.481Z,26.64
2023-07-15T12:09:18.165Z,26.74
2023-07-15T12:11:46.701Z,26.70
2023-07-15T12:14:14.605Z,26.92
2023-07-15T12:16:41.688Z,27.20
2023-07-15T12:19:13.706Z,27.41
2023-07-15T12:21:41.151Z,27.67
2023-07-15T12:24:08.032Z,28.01
2023-07-15T12:26:34.849Z,27.96
2023-07-15T12:29:01.409Z,27.85
2023-07-15T12:31:28.251Z,27.95
2023-07-15T12:33:54.788Z,27.71
2023-07-15T12:36:21.338Z,27.77
2023-07-15T12:38:47.883Z,27.69
2023-07-15T12:41:15.273Z,27.63
2023-07-15T12:43:42.275Z,27.79
2023-07-15T12:46:09.489Z,28.03
2023-07-15T12:48:37.840Z,27.90
2023-07-15T12:51:04.384Z,27.71
2023-07-15T12:53:30.925Z,27.67
2023-07-15T12:55:57.507Z,27.29
2023-07-15T12:58:24.368Z,26.92
2023-07-15T13:00:51.695Z,26.75
2023-07-15T13:03:19.524Z,26.70
2023-07-15T13:05:46.437Z,26.88
2023-07-15T13:08:16.314Z,27.42
2023-07-15T13:10:44.602Z,27.47
2023-07-15T13:13:11.124Z,27.43
2023-07-15T13:15:37.637Z,27.47
2023-07-15T13:18:04.336Z,27.42
2023-07-15T13:20:30.921Z,27.42
2023-07-15T13:22:57.534Z,27.34
2023-07-15T13:25:24.103Z,27.19
2023-07-15T13:27:51.166Z,27.09
2023-07-15T13:30:17.772Z,27.22
2023-07-15T13:32:44.343Z,27.15
2023-07-15T13:35:10.893Z,26.97
2023-07-15T13:37:37.414Z,26.74
2023-07-15T13:40:04.476Z,26.44
2023-07-15T13:42:31.020Z,26.14
2023-07-15T13:44:57.674Z,25.91
2023-07-15T13:47:24.368Z,25.68
2023-07-15T13:49:51.072Z,25.69
2023-07-15T13:52:17.620Z,25.70
2023-07-15T13:54:44.240Z,25.67
2023-07-15T13:57:10.785Z,25.75
2023-07-15T13:59:37.376Z,25.79
2023-07-15T14:02:04.057Z,25.64
2023-07-15T14:04:30.630Z,25.62
2023-07-15T14:06:57.218Z,25.56
2023-07-15T14:09:23.775Z,25.50
2023-07-15T14:11:50.264Z,25.64
2023-07-15T14:14:17.699Z,25.94
2023-07-15T14:16:44.284Z,26.17
2023-07-15T14:19:10.888Z,26.32
2023-07-15T14:21:37.503Z,26.51
2023-07-15T14:24:05.327Z,26.51
2023-07-15T14:26:33.106Z,27.06
2023-07-15T14:29:00.273Z,27.56
2023-07-15T14:31:26.974Z,27.74
2023-07-15T14:33:55.518Z,27.79
2023-07-15T14:36:22.847Z,27.77
2023-07-15T14:38:49.491Z,27.85
2023-07-15T14:41:17.457Z,27.62
2023-07-15T14:43:44.568Z,27.36
2023-07-15T14:46:11.227Z,27.00
2023-07-15T14:48:38.944Z,27.02
2023-07-15T14:51:05.941Z,27.23
2023-07-15T14:53:32.999Z,27.15
2023-07-15T14:55:59.798Z,26.68
2023-07-15T14:58:26.337Z,26.58
2023-07-15T15:00:53.075Z,26.80
2023-07-15T15:03:19.669Z,26.92
2023-07-15T15:05:46.386Z,27.09
2023-07-15T15:08:13.599Z,27.35
2023-07-15T15:10:42.325Z,27.42
2023-07-15T15:13:08.861Z,27.74
2023-07-15T15:15:35.423Z,27.58
2023-07-15T15:18:03.267Z,27.50
2023-07-15T15:20:29.821Z,27.64
2023-07-15T15:22:56.332Z,27.81
2023-07-15T15:25:23.016Z,27.39
2023-07-15T15:27:49.711Z,27.03
2023-07-15T15:30:16.298Z,26.72
2023-07-15T15:32:42.917Z,26.31
2023-07-15T15:35:09.765Z,26.00
2023-07-15T15:37:36.242Z,25.39
2023-07-15T15:40:03.700Z,24.50
2023-07-15T15:42:30.364Z,23.82
2023-07-15T15:44:58.251Z,22.93
2023-07-15T15:47:25.780Z,22.24
2023-07-15T15:49:52.386Z,22.04
2023-07-15T15:52:19.042Z,21.98
2023-07-15T15:54:45.569Z,21.83
2023-07-15T15:57:12.106Z,21.91
2023-07-15T15:59:38.724Z,22.05
2023-07-15T16:02:05.562Z,22.19
2023-07-15T16:04:32.246Z,22.09
2023-07-15T16:06:58.978Z,22.12
2023-07-15T16:09:26.346Z,21.81
2023-07-15T16:11:53.041Z,21.61
2023-07-15T16:14:20.294Z,21.61
2023-07-15T16:16:46.851Z,21.87
2023-07-15T16:19:13.399Z,21.97
2023-07-15T16:21:39.970Z,22.14
2023-07-15T16:24:06.545Z,22.19
2023-07-15T16:26:33.040Z,22.43
2023-07-15T16:28:59.544Z,22.69
2023-07-15T16:31:26.070Z,22.61
2023-07-15T16:33:52.641Z,22.41
2023-07-15T16:36:19.127Z,22.22
2023-07-15T16:38:45.841Z,22.16
2023-07-15T16:41:12.430Z,22.05
2023-07-15T16:43:38.922Z,21.94
2023-07-15T16:46:05.508Z,21.90
2023-07-15T16:48:32.073Z,21.81
2023-07-15T16:50:58.548Z,21.66
2023-07-15T16:53:25.006Z,21.54
2023-07-15T16:55:51.437Z,21.45
2023-07-15T16:58:20.269Z,21.45
2023-07-15T17:00:46.860Z,21.51
2023-07-15T17:03:13.597Z,21.50
2023-07-15T17:05:40.172Z,21.47
2023-07-15T17:08:06.651Z,21.48
2023-07-15T17:10:33.162Z,21.66
2023-07-15T17:12:59.658Z,21.73
2023-07-15T17:15:26.190Z,21.68
2023-07-15T17:17:52.716Z,21.78
2023-07-15T17:20:19.290Z,21.82
2023-07-15T17:22:45.804Z,21.91
2023-07-15T17:25:12.308Z,21.96
2023-07-15T17:27:38.849Z,21.89
2023-07-15T17:30:06.108Z,21.79
2023-07-15T17:32:32.702Z,21.82
2023-07-15T17:34:59.184Z,21.82
2023-07-15T17:37:28.070Z,21.85
2023-07-15T17:39:54.794Z,21.81
2023-07-15T17:42:21.256Z,21.80
2023-07-15T17:44:47.848Z,21.78
2023-07-15T17:47:14.406Z,21.82
2023-07-15T17:49:40.901Z,21.85
2023-07-15T17:52:09.520Z,21.88
2023-07-15T17:54:35.994Z,21.88
2023-07-15T17:57:02.584Z,21.85
2023-07-15T17:59:29.041Z,21.81
2023-07-15T18:01:55.632Z,21.71
2023-07-15T18:04:22.249Z,21.62
2023-07-15T18:06:48.747Z,21.55
2023-07-15T18:09:15.278Z,21.50
2023-07-15T18:11:41.754Z,21.46
2023-07-15T18:14:08.434Z,21.38
2023-07-15T18:16:35.124Z,21.35
2023-07-15T18:19:01.721Z,21.30
2023-07-15T18:21:28.235Z,21.30
2023-07-15T18:23:54.810Z,21.33
2023-07-15T18:26:21.328Z,21.32
2023-07-15T18:28:48.646Z,21.31
2023-07-15T18:31:15.392Z,21.34
2023-07-15T18:33:42.135Z,21.31
2023-07-15T18:36:08.592Z,21.30
2023-07-15T18:38:35.096Z,21.26
2023-07-15T18:41:01.539Z,21.20
2023-07-15T18:43:28.070Z,21.16
2023-07-15T18:45:54.613Z,21.13
2023-07-15T18:48:21.139Z,21.06
2023-07-15T18:50:47.655Z,21.03
2023-07-15T18:53:14.132Z,21.00
2023-07-15T18:55:40.577Z,20.88
2023-07-15T18:58:07.052Z,20.77
2023-07-15T19:00:33.625Z,20.71
2023-07-15T19:03:00.297Z,20.69
2023-07-15T19:05:26.841Z,20.67
2023-07-15T19:07:53.385Z,20.62
2023-07-15T19:10:19.881Z,20.60
2023-07-15T19:12:46.428Z,20.61
2023-07-15T19:15:12.936Z,20.56
2023-07-15T19:17:39.514Z,20.51
2023-07-15T19:20:06.597Z,20.50
2023-07-15T19:22:33.136Z,20.44
2023-07-15T19:24:59.657Z,20.38
2023-07-15T19:27:26.160Z,20.33
2023-07-15T19:29:52.656Z,20.27
2023-07-15T19:32:19.242Z,20.22
2023-07-15T19:34:46.077Z,20.19
2023-07-15T19:37:12.599Z,20.11
2023-07-15T19:39:39.025Z,20.06
2023-07-15T19:42:05.923Z,19.99
2023-07-15T19:44:32.387Z,19.94
2023-07-15T19:46:59.321Z,19.91
2023-07-15T19:49:25.986Z,19.86
2023-07-15T19:51:54.038Z,19.84
2023-07-15T19:54:20.544Z,19.81
2023-07-15T19:56:46.994Z,19.78
2023-07-15T19:59:13.589Z,19.74
2023-07-15T20:01:40.202Z,19.70
2023-07-15T20:04:07.174Z,19.65
2023-07-15T20:06:33.917Z,19.60
2023-07-15T20:09:00.684Z,19.54
2023-07-15T20:11:27.331Z,19.50
2023-07-15T20:13:53.789Z,19.44
2023-07-15T20:16:20.650Z,19.41
2023-07-15T20:18:47.397Z,19.38
2023-07-15T20:21:13.953Z,19.33
2023-07-15T20:23:40.496Z,19.30
2023-07-15T20:26:07.055Z,19.24
2023-07-15T20:28:33.618Z,19.23
2023-07-15T20:31:01.104Z,19.20
2023-07-15T20:33:27.753Z,19.21
2023-07-15T20:35:54.328Z,19.18
2023-07-15T20:38:20.914Z,19.17
2023-07-15T20:40:56.140Z,19.19
2023-07-15T20:43:24.193Z,19.15
2023-07-15T20:45:50.734Z,19.13
2023-07-15T20:48:17.211Z,19.14
2023-07-15T20:50:43.722Z,19.13
2023-07-15T20:53:10.217Z,19.10
2023-07-15T20:55:40.653Z,19.05
2023-07-15T20:58:08.151Z,18.99
2023-07-15T21:00:34.764Z,18.97
2023-07-15T21:03:01.357Z,18.97
2023-07-15T21:05:28.278Z,18.91
2023-07-15T21:07:54.817Z,18.88
2023-07-15T21:10:21.460Z,18.82
2023-07-15T21:12:48.012Z,18.77
2023-07-15T21:15:14.552Z,18.76
2023-07-15T21:17:41.036Z,18.72
2023-07-15T21:20:08.254Z,18.65
2023-07-15T21:22:35.045Z,18.60
2023-07-15T21:25:01.623Z,18.53
2023-07-15T21:27:28.109Z,18.47
2023-07-15T21:29:54.613Z,18.39
2023-07-15T21:32:21.166Z,18.30
2023-07-15T21:34:50.812Z,18.23
2023-07-15T21:37:17.225Z,18.17
2023-07-15T21:39:43.907Z,18.11
2023-07-15T21:42:10.414Z,18.02
2023-07-15T21:44:37.016Z,17.98
2023-07-15T21:47:03.782Z,17.91
2023-07-15T21:49:30.316Z,17.84
2023-07-15T21:51:56.899Z,17.76
2023-07-15T21:54:23.638Z,17.70
2023-07-15T21:56:50.349Z,17.65
2023-07-15T21:59:16.947Z,17.59
2023-07-15T22:01:43.664Z,17.53
2023-07-15T22:04:10.396Z,17.52
2023-07-15T22:06:37.036Z,17.46
2023-07-15T22:09:03.717Z,17.38
2023-07-15T22:11:30.246Z,17.34
2023-07-15T22:13:56.762Z,17.29
2023-07-15T22:16:23.383Z,17.25
2023-07-15T22:18:49.936Z,17.24
2023-07-15T22:21:16.353Z,17.23
2023-07-15T22:23:42.872Z,17.20
2023-07-15T22:26:09.592Z,17.19
2023-07-15T22:28:36.964Z,17.17
2023-07-15T22:31:03.675Z,17.18
2023-07-15T22:33:30.407Z,17.15
2023-07-15T22:35:56.929Z,17.10
2023-07-15T22:38:23.731Z,17.06
2023-07-15T22:40:50.296Z,17.01
2023-07-15T22:43:19.340Z,17.00
2023-07-15T22:45:56.026Z,16.96
2023-07-15T22:48:27.366Z,16.94
2023-07-15T22:50:54.457Z,16.92
2023-07-15T22:53:22.418Z,16.87
2023-07-15T22:55:49.436Z,16.82
2023-07-15T22:58:16.133Z,16.76
2023-07-15T23:00:42.641Z,16.71
2023-07-15T23:03:09.264Z,16.68
2023-07-15T23:05:35.941Z,16.67
2023-07-15T23:08:02.434Z,16.65
2023-07-15T23:10:28.954Z,16.61
2023-07-15T23:12:55.488Z,16.60
2023-07-15T23:15:22.005Z,16.60
2023-07-15T23:17:49.797Z,16.57
2023-07-15T23:20:16.399Z,16.56
2023-07-15T23:22:43.273Z,16.52
2023-07-15T23:25:10.838Z,16.49
2023-07-15T23:27:37.445Z,16.47
2023-07-15T23:30:04.963Z,16.48
2023-07-15T23:32:31.522Z,16.50
2023-07-15T23:34:58.136Z,16.52
2023-07-15T23:37:25.131Z,16.54
2023-07-15T23:39:55.958Z,16.56
2023-07-15T23:42:25.637Z,16.55
2023-07-15T23:44:52.527Z,16.58
2023-07-15T23:47:19.471Z,16.65
2023-07-15T23:49:49.286Z,16.70
2023-07-15T23:52:16.518Z,16.74
2023-07-15T23:54:43.362Z,16.70
2023-07-15T23:57:09.868Z,16.70
2023-07-15T23:59:36.332Z,16.71
